createdAt,value
2019-04-23T00:02:23.274Z,15.30
2019-04-23T00:04:50.535Z,15.30
2019-04-23T00:07:39.718Z,15.20
2019-04-23T00:10:01.190Z,15.20
2019-04-23T00:12:38.069Z,15.20
2019-04-23T00:15:08.816Z,15.10
2019-04-23T00:17:40.381Z,15.00
2019-04-23T00:20:09.590Z,15.10
2019-04-23T00:23:06.434Z,15.10
2019-04-23T00:25:56.173Z,15.00
2019-04-23T00:30:58.247Z,15.10
2019-04-23T00:35:56.579Z,15.00
2019-04-23T00:38:35.186Z,14.90
2019-04-23T00:41:05.099Z,14.90
2019-04-23T00:43:32.799Z,14.90
2019-04-23T00:45:59.341Z,15.10
2019-04-23T00:48:35.877Z,14.60
2019-04-23T00:53:34.282Z,14.70
2019-04-23T00:56:29.982Z,14.70
2019-04-23T01:01:32.678Z,14.60
2019-04-23T01:03:47.021Z,14.60
2019-04-23T01:06:17.063Z,14.60
2019-04-23T01:08:44.178Z,14.50
2019-04-23T01:11:14.800Z,14.60
2019-04-23T01:13:49.197Z,14.60
2019-04-23T01:16:16.412Z,14.70
2019-04-23T01:18:58.270Z,14.40
2019-04-23T01:21:32.529Z,14.40
2019-04-23T01:24:25.062Z,14.40
2019-04-23T01:27:47.415Z,14.40
2019-04-23T01:30:09.941Z,14.40
2019-04-23T01:35:17.640Z,14.30
2019-04-23T01:37:41.274Z,14.10
2019-04-23T01:45:20.047Z,14.20
2019-04-23T01:47:45.641Z,14.20
2019-04-23T01:50:28.656Z,14.10
2019-04-23T01:55:26.270Z,14.00
2019-04-23T01:58:07.056Z,13.90
2019-04-23T02:00:30.638Z,13.90
2019-04-23T02:03:04.049Z,13.70
2019-04-23T02:08:03.986Z,13.80
2019-04-23T02:10:51.285Z,13.80
2019-04-23T02:13:11.093Z,13.80
2019-04-23T02:15:36.274Z,13.80
2019-04-23T02:18:13.353Z,13.70
2019-04-23T02:20:43.201Z,13.70
2019-04-23T02:23:33.217Z,13.50
2019-04-23T02:26:07.888Z,13.30
2019-04-23T02:28:38.840Z,13.10
2019-04-23T02:31:25.297Z,13.30
2019-04-23T02:33:44.649Z,13.10
2019-04-23T02:36:31.435Z,13.20
2019-04-23T02:41:16.416Z,13.40
2019-04-23T02:43:44.186Z,13.30
2019-04-23T02:46:09.758Z,13.30
2019-04-23T02:49:00.006Z,13.20
2019-04-23T02:51:39.571Z,13.30
2019-04-23T02:56:37.936Z,13.30
2019-04-23T03:01:32.040Z,13.30
2019-04-23T03:04:12.636Z,13.50
2019-04-23T03:06:43.716Z,13.40
2019-04-23T03:09:23.308Z,13.40
2019-04-23T03:11:41.685Z,13.30
2019-04-23T03:25:12.574Z,13.40
2019-04-23T03:30:30.209Z,13.10
2019-04-23T03:34:10.915Z,13.10
2019-04-23T03:37:49.312Z,13.20
2019-04-23T03:40:15.693Z,13.20
2019-04-23T03:47:56.144Z,13.20
2019-04-23T03:52:57.647Z,13.10
2019-04-23T03:55:52.062Z,13.10
2019-04-23T04:00:51.457Z,13.20
2019-04-23T04:03:10.447Z,13.20
2019-04-23T04:08:13.775Z,13.30
2019-04-23T04:10:52.365Z,13.30
2019-04-23T04:13:09.734Z,13.40
2019-04-23T04:15:48.887Z,13.40
2019-04-23T04:18:25.835Z,13.40
2019-04-23T04:20:44.158Z,13.50
2019-04-23T04:23:19.136Z,13.30
2019-04-23T04:25:44.012Z,13.70
2019-04-23T04:28:24.759Z,13.20
2019-04-23T04:30:43.776Z,13.20
2019-04-23T04:36:07.766Z,13.20
2019-04-23T04:38:36.690Z,13.20
2019-04-23T04:41:03.068Z,13.20
2019-04-23T04:48:35.807Z,13.30
2019-04-23T04:51:15.717Z,13.40
2019-04-23T04:56:14.290Z,13.60
2019-04-23T04:58:44.069Z,13.70
2019-04-23T05:01:08.540Z,13.60
2019-04-23T05:03:29.669Z,13.70
2019-04-23T05:19:02.679Z,13.90
2019-04-23T05:21:12.143Z,13.90
2019-04-23T05:26:21.083Z,14.20
2019-04-23T05:28:55.503Z,14.10
2019-04-23T05:31:20.350Z,14.10
2019-04-23T05:33:57.131Z,14.10
2019-04-23T05:36:35.924Z,14.00
2019-04-23T05:41:23.360Z,14.10
2019-04-23T05:43:52.610Z,14.10
2019-04-23T05:46:26.361Z,14.10
2019-04-23T05:48:59.621Z,14.20
2019-04-23T05:51:36.341Z,14.30
2019-04-23T05:54:05.601Z,14.30
2019-04-23T05:56:27.719Z,14.40
2019-04-23T05:59:06.576Z,14.30
2019-04-23T06:07:11.451Z,14.30
2019-04-23T06:09:26.614Z,14.40
2019-04-23T06:11:56.468Z,14.50
2019-04-23T06:14:29.140Z,14.60
2019-04-23T06:17:02.197Z,14.70
2019-04-23T06:19:22.753Z,14.80
2019-04-23T06:32:06.551Z,15.40
2019-04-23T06:34:33.947Z,15.50
2019-04-23T06:37:09.580Z,15.60
2019-04-23T06:42:17.491Z,15.70
2019-04-23T06:47:28.926Z,15.80
2019-04-23T06:49:55.956Z,15.90
2019-04-23T07:00:00.605Z,16.30
2019-04-23T07:02:48.806Z,16.50
2019-04-23T07:05:15.792Z,16.80
2019-04-23T07:07:55.252Z,16.80
2019-04-23T07:10:36.957Z,16.90
2019-04-23T07:12:47.210Z,17.50
2019-04-23T07:17:42.785Z,17.70
2019-04-23T07:20:25.150Z,17.80
2019-04-23T07:22:56.899Z,18.10
2019-04-23T07:27:58.525Z,18.40
2019-04-23T07:30:30.832Z,18.60
2019-04-23T07:33:01.824Z,18.90
2019-04-23T07:35:21.206Z,19.50
2019-04-23T07:38:12.871Z,19.10
2019-04-23T07:40:40.473Z,19.30
2019-04-23T07:43:41.147Z,19.60
2019-04-23T07:46:25.026Z,19.60
2019-04-23T07:48:48.038Z,19.60
2019-04-23T07:51:27.613Z,19.80
2019-04-23T07:54:01.234Z,19.90
2019-04-23T08:01:26.490Z,19.90
2019-04-23T08:04:04.691Z,20.10
2019-04-23T08:06:34.830Z,20.20
2019-04-23T08:09:00.840Z,20.30
2019-04-23T08:14:08.347Z,20.40
2019-04-23T08:16:54.174Z,20.50
2019-04-23T08:19:15.434Z,20.90
2019-04-23T08:24:38.041Z,20.40
2019-04-23T08:29:41.104Z,21.10
2019-04-23T08:32:13.883Z,21.10
2019-04-23T08:37:25.279Z,21.20
2019-04-23T08:39:48.051Z,21.70
2019-04-23T08:48:14.371Z,22.60
2019-04-23T08:53:23.282Z,23.10
2019-04-23T08:55:46.877Z,23.20
2019-04-23T08:58:14.112Z,23.20
2019-04-23T09:00:51.912Z,23.10
2019-04-23T09:03:20.271Z,23.10
2019-04-23T09:08:20.428Z,22.80
2019-04-23T09:10:55.834Z,23.10
2019-04-23T09:13:51.714Z,23.20
2019-04-23T09:20:49.235Z,23.30
2019-04-23T09:23:35.126Z,23.10
2019-04-23T09:28:42.036Z,23.70
2019-04-23T09:31:27.947Z,24.00
2019-04-23T09:39:37.713Z,24.10
2019-04-23T09:42:28.226Z,24.20
2019-04-23T09:47:53.709Z,24.40
2019-04-23T09:53:11.098Z,24.80
2019-04-23T09:55:33.626Z,24.70
2019-04-23T10:00:51.417Z,24.60
2019-04-23T10:03:02.300Z,24.70
2019-04-23T10:05:28.728Z,24.70
2019-04-23T10:07:59.935Z,24.60
2019-04-23T10:10:20.720Z,24.50
2019-04-23T10:12:50.344Z,24.00
2019-04-23T10:15:25.017Z,23.80
2019-04-23T10:17:52.102Z,23.70
2019-04-23T10:20:22.559Z,23.80
2019-04-23T10:22:52.575Z,23.60
2019-04-23T10:28:01.156Z,23.60
2019-04-23T10:30:26.976Z,23.60
2019-04-23T10:32:57.740Z,23.70
2019-04-23T10:35:39.480Z,23.90
2019-04-23T10:38:04.213Z,24.10
2019-04-23T10:40:34.796Z,24.10
2019-04-23T10:43:03.430Z,24.10
2019-04-23T10:46:18.598Z,23.90
2019-04-23T11:02:31.615Z,24.50
2019-04-23T11:12:37.235Z,24.50
2019-04-23T11:17:53.501Z,24.10
2019-04-23T11:20:27.409Z,24.10
2019-04-23T11:28:00.442Z,24.10
2019-04-23T11:35:47.638Z,24.00
2019-04-23T11:40:35.350Z,23.90
2019-04-23T11:43:09.070Z,23.90
2019-04-23T11:53:19.979Z,24.00
2019-04-23T11:55:44.798Z,24.10
2019-04-23T11:58:13.696Z,24.20
2019-04-23T12:01:26.148Z,24.40
2019-04-23T12:06:52.926Z,24.60
2019-04-23T12:12:02.236Z,24.70
2019-04-23T12:14:47.968Z,24.30
2019-04-23T12:22:38.954Z,24.40
2019-04-23T12:25:25.385Z,24.50
2019-04-23T12:27:38.608Z,24.50
2019-04-23T12:30:25.279Z,24.60
2019-04-23T12:35:23.971Z,24.60
2019-04-23T12:38:07.307Z,24.50
2019-04-23T12:40:51.429Z,24.40
2019-04-23T12:43:20.686Z,24.30
2019-04-23T12:48:35.017Z,24.40
2019-04-23T12:53:30.427Z,24.40
2019-04-23T12:56:21.919Z,24.40
2019-04-23T13:03:41.283Z,24.70
2019-04-23T13:06:17.086Z,24.60
2019-04-23T13:09:14.018Z,24.60
2019-04-23T13:11:29.816Z,24.40
2019-04-23T13:14:00.474Z,24.40
2019-04-23T13:16:38.079Z,24.40
2019-04-23T13:19:18.947Z,24.50
2019-04-23T13:24:32.758Z,24.50
2019-04-23T13:27:11.885Z,24.70
2019-04-23T13:29:42.906Z,24.60
2019-04-23T13:32:15.268Z,24.60
2019-04-23T13:34:48.407Z,24.70
2019-04-23T13:37:20.161Z,24.80
2019-04-23T13:39:43.963Z,24.80
2019-04-23T13:42:24.283Z,24.50
2019-04-23T13:44:54.795Z,24.40
2019-04-23T13:47:38.308Z,24.40
2019-04-23T13:49:57.937Z,24.50
2019-04-23T13:55:10.350Z,24.30
2019-04-23T13:58:07.264Z,24.30
2019-04-23T14:00:07.111Z,24.50
2019-04-23T14:02:56.107Z,24.50
2019-04-23T14:05:19.096Z,24.60
2019-04-23T14:07:56.538Z,24.70
2019-04-23T14:10:31.126Z,24.90
2019-04-23T14:13:15.052Z,24.90
2019-04-23T14:18:19.263Z,24.20
2019-04-23T14:25:47.806Z,24.50
2019-04-23T14:28:13.900Z,24.50
2019-04-23T14:30:39.003Z,24.40
2019-04-23T14:33:15.301Z,24.40
2019-04-23T14:35:43.290Z,24.50
2019-04-23T14:43:13.953Z,24.40
2019-04-23T14:48:23.662Z,24.40
2019-04-23T14:51:02.492Z,24.40
2019-04-23T14:53:27.208Z,23.40
2019-04-23T14:56:07.683Z,24.40
2019-04-23T15:01:22.009Z,24.40
2019-04-23T15:06:28.211Z,24.60
2019-04-23T15:08:50.073Z,24.70
2019-04-23T15:19:34.108Z,24.50
2019-04-23T15:24:32.888Z,24.60
2019-04-23T15:29:15.255Z,24.80
2019-04-23T15:34:48.914Z,24.70
2019-04-23T15:37:21.870Z,24.80
2019-04-23T15:39:38.119Z,24.70
2019-04-23T15:42:12.611Z,24.60
2019-04-23T15:44:31.805Z,24.60
2019-04-23T15:47:12.423Z,24.50
2019-04-23T15:49:47.415Z,24.50
2019-04-23T15:52:10.733Z,24.50
2019-04-23T15:57:44.986Z,24.50
2019-04-23T15:59:49.725Z,24.40
2019-04-23T16:01:51.996Z,24.50
2019-04-23T16:04:24.296Z,24.50
2019-04-23T16:06:54.059Z,24.50
2019-04-23T16:10:04.344Z,24.60
2019-04-23T16:12:27.719Z,24.50
2019-04-23T16:15:06.475Z,24.50
2019-04-23T16:17:37.510Z,24.50
2019-04-23T16:23:07.721Z,24.40
2019-04-23T16:25:44.403Z,24.40
2019-04-23T16:28:23.947Z,24.40
2019-04-23T16:30:48.160Z,24.40
2019-04-23T16:33:22.034Z,24.40
2019-04-23T16:36:11.200Z,24.40
2019-04-23T16:38:40.831Z,24.30
2019-04-23T16:41:19.691Z,24.10
2019-04-23T16:43:50.474Z,24.10
2019-04-23T16:49:10.214Z,24.10
2019-04-23T16:51:27.849Z,24.00
2019-04-23T16:54:03.074Z,23.80
2019-04-23T16:59:10.313Z,23.70
2019-04-23T17:01:27.414Z,23.70
2019-04-23T17:04:03.739Z,23.50
2019-04-23T17:06:30.958Z,23.30
2019-04-23T17:09:09.535Z,23.20
2019-04-23T17:14:16.367Z,23.10
2019-04-23T17:16:38.317Z,22.90
2019-04-23T17:19:17.765Z,22.90
2019-04-23T17:21:44.448Z,22.80
2019-04-23T17:27:03.945Z,22.80
2019-04-23T17:29:28.281Z,22.60
2019-04-23T17:32:05.591Z,22.60
2019-04-23T17:40:06.934Z,22.50
2019-04-23T17:42:43.816Z,22.40
2019-04-23T17:45:31.049Z,22.40
2019-04-23T17:48:13.243Z,22.20
2019-04-23T17:50:53.273Z,22.20
2019-04-23T17:56:14.235Z,22.00
2019-04-23T17:58:37.277Z,22.00
2019-04-23T18:01:20.163Z,21.90
2019-04-23T18:06:37.657Z,21.70
2019-04-23T18:09:00.900Z,21.60
2019-04-23T18:16:35.550Z,21.00
2019-04-23T18:22:05.508Z,21.20
2019-04-23T18:24:57.808Z,21.10
2019-04-23T18:27:27.545Z,21.10
2019-04-23T18:33:34.040Z,21.00
2019-04-23T18:37:56.838Z,20.90
2019-04-23T18:40:28.605Z,20.80
2019-04-23T18:51:01.056Z,20.70
2019-04-23T18:58:47.497Z,20.60
2019-04-23T19:06:32.603Z,20.50
2019-04-23T19:14:35.172Z,20.40
2019-04-23T19:19:31.710Z,20.30
2019-04-23T19:29:40.126Z,20.00
2019-04-23T19:37:12.945Z,20.00
2019-04-23T19:42:03.690Z,19.70
2019-04-23T19:49:41.874Z,19.10
2019-04-23T19:52:10.811Z,18.80
2019-04-23T19:57:19.882Z,18.60
2019-04-23T20:04:56.026Z,18.20
2019-04-23T20:12:39.054Z,18.00
2019-04-23T20:14:59.975Z,17.90
2019-04-23T20:22:41.946Z,17.60
2019-04-23T20:25:20.882Z,17.50
2019-04-23T20:27:42.891Z,17.40
2019-04-23T20:33:27.867Z,17.50
2019-04-23T20:35:24.362Z,17.50
2019-04-23T20:38:18.724Z,17.60
2019-04-23T20:42:58.744Z,17.80
2019-04-23T20:45:27.644Z,18.00
2019-04-23T20:47:58.090Z,18.10
2019-04-23T20:50:32.140Z,18.10
2019-04-23T20:52:52.887Z,18.10
2019-04-23T20:55:38.527Z,18.10
2019-04-23T20:58:32.306Z,18.20
2019-04-23T21:01:22.280Z,18.20
2019-04-23T21:12:27.795Z,17.80
2019-04-23T21:17:00.118Z,17.80
2019-04-23T21:19:39.485Z,17.90
2019-04-23T21:22:09.559Z,17.90
2019-04-23T21:24:35.040Z,17.90
2019-04-23T21:30:06.761Z,18.00
2019-04-23T21:32:33.214Z,18.00
2019-04-23T21:35:04.630Z,18.10
2019-04-23T21:43:10.695Z,18.10
2019-04-23T21:45:40.752Z,18.10
2019-04-23T21:48:10.292Z,18.10
2019-04-23T21:50:43.838Z,18.00
2019-04-23T21:53:11.738Z,18.00
2019-04-23T21:55:56.246Z,18.00
2019-04-23T21:58:44.210Z,18.00
2019-04-23T22:01:24.539Z,17.90
2019-04-23T22:14:11.558Z,17.60
2019-04-23T22:16:50.084Z,17.40
2019-04-23T22:19:15.502Z,17.40
2019-04-23T22:24:17.003Z,17.30
2019-04-23T22:26:51.412Z,17.30
2019-04-23T22:29:37.956Z,17.40
2019-04-23T22:34:38.920Z,17.50
2019-04-23T22:39:54.135Z,17.30
2019-04-23T22:42:42.939Z,17.30
2019-04-23T22:45:10.232Z,17.30
2019-04-23T22:47:47.952Z,17.20
2019-04-23T22:50:12.635Z,17.20
2019-04-23T22:52:53.959Z,17.20
2019-04-23T22:55:44.245Z,17.10
2019-04-23T23:00:29.337Z,17.00
2019-04-23T23:05:56.224Z,17.10
2019-04-23T23:08:13.163Z,17.10
2019-04-23T23:10:51.906Z,17.20
2019-04-23T23:13:20.706Z,17.10
2019-04-23T23:15:53.173Z,17.10
2019-04-23T23:20:59.664Z,17.20
2019-04-23T23:25:56.861Z,17.20
2019-04-23T23:28:31.386Z,17.20
2019-04-23T23:31:02.020Z,17.10
2019-04-23T23:33:23.056Z,17.10
2019-04-23T23:36:02.716Z,17.10
2019-04-23T23:38:33.454Z,17.10
2019-04-23T23:43:29.774Z,17.00
2019-04-23T23:46:06.955Z,17.00
2019-04-23T23:48:29.841Z,17.00
2019-04-23T23:51:11.500Z,16.90
2019-04-23T23:56:05.437Z,16.80
